Wetterdaten: Woche 06.06.22 - 12.06.22 (KW23)
Datum Zeit Temp. Aussen Temp. o. S. Temp +5cm Feuchte Auss Luftdruck Regen Sonnenschein Regendauer Solar Windben Empfang
06.06.2022 00:00 16,7 C 16,1 C 12,6 C 97 % 1013,9 hPa 0,0 l/m 0,00 h 0,00 h 0 W/m 13,1 km/h (3 Bft) 98,05 %
06.06.2022 01:00 16,1 C 15,4 C 11,8 C 94 % 1014,3 hPa 0,0 l/m 0,00 h 0,00 h 0 W/m 20,2 km/h (4 Bft) 97,65 %
06.06.2022 02:00 15,7 C 14,9 C 11,8 C 93 % 1014,4 hPa 0,0 l/m 0,00 h 0,00 h 0 W/m 11,7 km/h (2 Bft) 97,81 %
06.06.2022 03:00 15,3 C 14,4 C 11,2 C 95 % 1014,3 hPa 0,0 l/m 0,00 h 0,13 h 0 W/m 5,3 km/h (1 Bft) 96,58 %
06.06.2022 04:00 15,2 C 14,4 C 11,6 C 97 % 1014,1 hPa 0,2 l/m 0,00 h 0,00 h 0 W/m 8,7 km/h (2 Bft) 98,51 %
06.06.2022 05:00 15,1 C 14,4 C 11,7 C 95 % 1014,2 hPa 0,0 l/m 0,00 h 0,00 h 10 W/m 12,9 km/h (3 Bft) 97,00 %
06.06.2022 06:00 14,8 C 14,4 C 11,7 C 94 % 1014,5 hPa 0,0 l/m 0,00 h 0,00 h 44 W/m 13,1 km/h (3 Bft) 97,77 %
06.06.2022 07:00 14,8 C 14,3 C 11,5 C 92 % 1014,8 hPa 0,0 l/m 0,23 h 0,00 h 99 W/m 14,5 km/h (3 Bft) 97,65 %
06.06.2022 08:00 15,7 C 17,3 C 13,3 C 86 % 1015,2 hPa 0,0 l/m 0,90 h 0,00 h 383 W/m 17,4 km/h (3 Bft) 98,51 %
06.06.2022 09:00 17,5 C 21,9 C 16,9 C 75 % 1015,3 hPa 0,0 l/m 1,00 h 0,00 h 594 W/m 19,3 km/h (3 Bft) 97,29 %
06.06.2022 10:00 18,3 C 19,6 C 17,1 C 71 % 1015,3 hPa 0,0 l/m 0,50 h 0,00 h 478 W/m 19,6 km/h (3 Bft) 95,94 %
06.06.2022 11:00 18,7 C 19,4 C 16,2 C 68 % 1015,3 hPa 0,0 l/m 0,40 h 0,00 h 434 W/m 21,2 km/h (4 Bft) 98,00 %
06.06.2022 12:00 19,4 C 20,0 C 18,8 C 67 % 1015,0 hPa 0,8 l/m 0,50 h 0,10 h 640 W/m 22,9 km/h (4 Bft) 99,27 %
06.06.2022 13:00 17,7 C 18,6 C 15,9 C 79 % 1014,9 hPa 0,0 l/m 0,50 h 0,07 h 637 W/m 16,9 km/h (3 Bft) 97,11 %
06.06.2022 14:00 21,0 C 22,9 C 17,7 C 64 % 1014,4 hPa 0,0 l/m 1,00 h 0,00 h 1025 W/m 24,7 km/h (4 Bft) 97,38 %
06.06.2022 15:00 21,7 C 22,7 C 17,7 C 58 % 1014,2 hPa 0,0 l/m 0,70 h 0,00 h 623 W/m 22,1 km/h (4 Bft) 96,86 %
06.06.2022 16:00 20,9 C 21,3 C 17,2 C 59 % 1014,3 hPa 0,0 l/m 0,43 h 0,00 h 376 W/m 20,9 km/h (4 Bft) 99,55 %
06.06.2022 17:00 20,9 C 22,2 C 17,1 C 60 % 1014,3 hPa 0,0 l/m 0,80 h 0,00 h 445 W/m 24,2 km/h (4 Bft) 97,15 %
06.06.2022 18:00 20,0 C 19,5 C 16,0 C 61 % 1014,2 hPa 0,0 l/m 0,03 h 0,00 h 160 W/m 23,3 km/h (4 Bft) 97,21 %
06.06.2022 19:00 19,1 C 18,5 C 15,1 C 66 % 1014,5 hPa 0,0 l/m 0,00 h 0,00 h 77 W/m 14,9 km/h (3 Bft) 98,51 %
06.06.2022 20:00 18,5 C 17,8 C 14,3 C 67 % 1014,8 hPa 0,0 l/m 0,00 h 0,00 h 27 W/m 13,7 km/h (3 Bft) 97,98 %
06.06.2022 21:00 17,6 C 16,4 C 13,0 C 74 % 1014,9 hPa 0,0 l/m 0,00 h 0,00 h 8 W/m 9,1 km/h (2 Bft) 96,01 %
06.06.2022 22:00 15,8 C 14,7 C 11,3 C 83 % 1015,3 hPa 0,0 l/m 0,00 h 0,00 h 0 W/m 8,4 km/h (2 Bft) 99,93 %
06.06.2022 23:00 14,8 C 13,8 C 10,7 C 87 % 1015,1 hPa 0,0 l/m 0,00 h 0,00 h 0 W/m 1,2 km/h (1 Bft) 96,30 %
07.06.2022 00:00 14,2 C 12,8 C 9,8 C 89 % 1014,9 hPa 0,0 l/m 0,00 h 0,00 h 0 W/m 0,0 km/h (0 Bft) 96,97 %
07.06.2022 01:00 13,4 C 12,0 C 9,1 C 91 % 1014,5 hPa 0,0 l/m 0,00 h 0,00 h 0 W/m 0,3 km/h (0 Bft) 99,07 %
07.06.2022 02:00 12,8 C 11,8 C 9,0 C 93 % 1014,1 hPa 0,0 l/m 0,00 h 0,00 h 0 W/m 2,9 km/h (1 Bft) 95,87 %
07.06.2022 03:00 12,4 C 11,7 C 8,9 C 93 % 1013,7 hPa 0,0 l/m 0,00 h 0,00 h 0 W/m 6,2 km/h (2 Bft) 98,08 %
07.06.2022 04:00 11,9 C 11,2 C 8,5 C 93 % 1013,3 hPa 0,0 l/m 0,00 h 0,00 h 0 W/m 9,8 km/h (2 Bft) 96,37 %
07.06.2022 05:00 11,8 C 11,1 C 8,3 C 91 % 1013,4 hPa 0,0 l/m 0,00 h 0,00 h 8 W/m 9,3 km/h (2 Bft) 99,22 %
07.06.2022 06:00 12,2 C 11,9 C 9,0 C 90 % 1013,6 hPa 0,0 l/m 0,00 h 0,00 h 41 W/m 8,7 km/h (2 Bft) 96,99 %
07.06.2022 07:00 13,6 C 13,4 C 10,2 C 86 % 1013,7 hPa 0,0 l/m 0,13 h 0,00 h 107 W/m 11,8 km/h (2 Bft) 96,73 %
07.06.2022 08:00 15,4 C 16,9 C 12,3 C 81 % 1013,8 hPa 0,0 l/m 1,00 h 0,00 h 392 W/m 13,1 km/h (3 Bft) 98,86 %
07.06.2022 09:00 17,2 C 20,1 C 15,6 C 76 % 1013,8 hPa 0,0 l/m 0,83 h 0,00 h 523 W/m 13,7 km/h (3 Bft) 97,73 %
07.06.2022 10:00 18,4 C 19,6 C 16,5 C 72 % 1013,7 hPa 0,0 l/m 0,57 h 0,00 h 458 W/m 15,3 km/h (3 Bft) 98,51 %
07.06.2022 11:00 19,0 C 19,7 C 16,6 C 71 % 1013,6 hPa 0,0 l/m 0,63 h 0,00 h 443 W/m 15,8 km/h (3 Bft) 96,51 %
07.06.2022 12:00 20,2 C 21,1 C 18,3 C 70 % 1013,2 hPa 0,0 l/m 0,50 h 0,00 h 478 W/m 15,8 km/h (3 Bft) 97,25 %
07.06.2022 13:00 20,3 C 20,7 C 17,4 C 70 % 1013,1 hPa 0,0 l/m 0,33 h 0,00 h 438 W/m 16,1 km/h (3 Bft) 99,57 %
07.06.2022 14:00 19,3 C 18,9 C 15,3 C 75 % 1013,2 hPa 0,0 l/m 0,00 h 0,37 h 242 W/m 16,5 km/h (3 Bft) 96,16 %
07.06.2022 15:00 17,2 C 16,8 C 12,4 C 90 % 1013,2 hPa 0,2 l/m 0,00 h 0,50 h 197 W/m 9,4 km/h (2 Bft) 97,50 %
07.06.2022 16:00 16,9 C 17,5 C 12,4 C 93 % 1012,9 hPa 0,4 l/m 0,30 h 0,33 h 299 W/m 7,6 km/h (2 Bft) 97,81 %
07.06.2022 17:00 18,8 C 22,0 C 14,7 C 87 % 1012,5 hPa 0,0 l/m 0,97 h 0,00 h 502 W/m 12,7 km/h (3 Bft) 97,89 %
07.06.2022 18:00 20,1 C 22,0 C 16,4 C 81 % 1012,1 hPa 0,0 l/m 0,73 h 0,00 h 322 W/m 9,9 km/h (2 Bft) 96,42 %
07.06.2022 19:00 19,4 C 18,7 C 15,0 C 84 % 1012,1 hPa 0,0 l/m 0,00 h 0,20 h 100 W/m 6,8 km/h (2 Bft) 97,86 %
07.06.2022 20:00 18,7 C 18,0 C 14,4 C 87 % 1012,2 hPa 0,0 l/m 0,00 h 0,03 h 51 W/m 9,6 km/h (2 Bft) 97,94 %
07.06.2022 21:00 18,3 C 17,4 C 14,0 C 89 % 1012,3 hPa 0,0 l/m 0,00 h 0,10 h 13 W/m 8,5 km/h (2 Bft) 98,00 %
07.06.2022 22:00 17,9 C 16,9 C 13,6 C 92 % 1012,5 hPa 0,0 l/m 0,00 h 0,00 h 0 W/m 3,4 km/h (1 Bft) 96,37 %
07.06.2022 23:00 17,1 C 16,0 C 12,8 C 93 % 1012,4 hPa 0,0 l/m 0,00 h 0,00 h 0 W/m 3,6 km/h (1 Bft) 99,15 %
08.06.2022 00:00 16,2 C 15,3 C 12,1 C 93 % 1012,1 hPa 0,0 l/m 0,00 h 0,00 h 0 W/m 5,8 km/h (2 Bft) 96,95 %
08.06.2022 01:00 15,7 C 14,7 C 11,7 C 95 % 1011,7 hPa 0,0 l/m 0,00 h 0,00 h 0 W/m 3,4 km/h (1 Bft) 97,01 %
08.06.2022 02:00 15,1 C 14,0 C 10,9 C 95 % 1011,3 hPa 0,0 l/m 0,00 h 0,00 h 0 W/m 0,7 km/h (0 Bft) 97,55 %
08.06.2022 03:00 14,2 C 12,8 C 10,0 C 95 % 1010,7 hPa 0,0 l/m 0,00 h 0,00 h 0 W/m 0,0 km/h (0 Bft) 98,08 %
08.06.2022 04:00 13,4 C 12,4 C 9,6 C 96 % 1010,1 hPa 0,0 l/m 0,00 h 0,00 h 0 W/m 1,7 km/h (1 Bft) 97,65 %
08.06.2022 05:00 13,7 C 12,8 C 10,0 C 97 % 1009,7 hPa 0,0 l/m 0,00 h 0,00 h 12 W/m 4,7 km/h (1 Bft) 96,23 %
08.06.2022 06:00 13,8 C 13,2 C 10,4 C 98 % 1009,5 hPa 0,0 l/m 0,00 h 0,00 h 41 W/m 6,4 km/h (2 Bft) 99,79 %
08.06.2022 07:00 14,8 C 15,0 C 11,9 C 98 % 1009,2 hPa 0,0 l/m 0,10 h 0,00 h 128 W/m 6,5 km/h (2 Bft) 96,30 %
08.06.2022 08:00 15,9 C 16,5 C 13,0 C 96 % 1008,7 hPa 0,0 l/m 0,00 h 0,00 h 186 W/m 8,7 km/h (2 Bft) 98,15 %
08.06.2022 09:00 17,2 C 17,1 C 13,8 C 90 % 1008,3 hPa 0,0 l/m 0,07 h 0,00 h 190 W/m 12,4 km/h (3 Bft) 98,29 %
08.06.2022 10:00 18,6 C 19,5 C 16,2 C 87 % 1007,9 hPa 0,0 l/m 0,67 h 0,00 h 428 W/m 13,3 km/h (3 Bft) 97,65 %
08.06.2022 11:00 20,6 C 20,6 C 16,9 C 77 % 1007,5 hPa 0,0 l/m 0,37 h 0,20 h 277 W/m 13,6 km/h (3 Bft) 95,80 %
08.06.2022 12:00 18,1 C 15,8 C 12,4 C 89 % 1007,6 hPa 6,4 l/m 0,00 h 1,00 h 87 W/m 9,8 km/h (2 Bft) 98,36 %
08.06.2022 13:00 16,8 C 15,4 C 12,1 C 94 % 1007,6 hPa 2,8 l/m 0,00 h 1,00 h 132 W/m 10,8 km/h (2 Bft) 97,15 %
08.06.2022 14:00 16,6 C 15,8 C 12,3 C 95 % 1007,3 hPa 0,4 l/m 0,00 h 1,00 h 169 W/m 7,7 km/h (2 Bft) 97,79 %
08.06.2022 15:00 16,5 C 15,4 C 12,3 C 96 % 1007,0 hPa 4,6 l/m 0,00 h 1,00 h 104 W/m 8,1 km/h (2 Bft) 96,72 %
08.06.2022 16:00 15,7 C 14,7 C 11,8 C 96 % 1006,8 hPa 1,4 l/m 0,00 h 1,00 h 139 W/m 9,1 km/h (2 Bft) 99,00 %
08.06.2022 17:00 15,8 C 15,1 C 12,0 C 97 % 1006,5 hPa 1,8 l/m 0,00 h 1,00 h 160 W/m 19,3 km/h (3 Bft) 96,73 %
08.06.2022 18:00 15,4 C 14,3 C 11,5 C 97 % 1006,6 hPa 0,2 l/m 0,00 h 0,90 h 104 W/m 13,2 km/h (3 Bft) 97,87 %
08.06.2022 19:00 14,9 C 14,0 C 11,0 C 97 % 1007,0 hPa 0,8 l/m 0,00 h 0,97 h 67 W/m 10,6 km/h (2 Bft) 97,86 %
08.06.2022 20:00 15,1 C 14,2 C 11,4 C 97 % 1007,4 hPa 0,0 l/m 0,00 h 0,70 h 43 W/m 5,1 km/h (1 Bft) 97,87 %
08.06.2022 21:00 15,1 C 14,1 C 11,4 C 98 % 1007,8 hPa 0,0 l/m 0,00 h 0,10 h 10 W/m 5,6 km/h (1 Bft) 96,66 %
08.06.2022 22:00 14,8 C 13,8 C 11,1 C 98 % 1008,2 hPa 0,0 l/m 0,00 h 0,00 h 0 W/m 6,1 km/h (2 Bft) 98,93 %
08.06.2022 23:00 14,3 C 13,4 C 10,8 C 98 % 1008,4 hPa 0,2 l/m 0,00 h 0,00 h 0 W/m 5,6 km/h (1 Bft) 97,30 %
09.06.2022 00:00 14,3 C 13,4 C 10,7 C 98 % 1008,5 hPa 0,0 l/m 0,00 h 0,00 h 0 W/m 4,6 km/h (1 Bft) 97,10 %
09.06.2022 01:00 13,7 C 12,9 C 10,2 C 98 % 1008,7 hPa 0,0 l/m 0,00 h 0,00 h 0 W/m 5,8 km/h (2 Bft) 97,51 %
09.06.2022 02:00 13,2 C 12,3 C 9,5 C 97 % 1009,0 hPa 0,0 l/m 0,00 h 0,00 h 0 W/m 5,3 km/h (1 Bft) 98,43 %
09.06.2022 03:00 12,8 C 12,2 C 9,4 C 97 % 1009,3 hPa 0,0 l/m 0,00 h 0,00 h 0 W/m 8,1 km/h (2 Bft) 97,08 %
09.06.2022 04:00 13,0 C 12,2 C 9,9 C 97 % 1009,8 hPa 0,0 l/m 0,00 h 0,00 h 0 W/m 9,1 km/h (2 Bft) 97,01 %
09.06.2022 05:00 13,2 C 12,5 C 10,3 C 97 % 1010,3 hPa 0,0 l/m 0,00 h 0,00 h 5 W/m 8,1 km/h (2 Bft) 99,86 %
09.06.2022 06:00 13,3 C 12,8 C 10,6 C 97 % 1011,0 hPa 0,0 l/m 0,00 h 0,00 h 29 W/m 9,6 km/h (2 Bft) 95,52 %
09.06.2022 07:00 13,7 C 13,4 C 10,9 C 96 % 1011,7 hPa 0,0 l/m 0,00 h 0,00 h 58 W/m 9,0 km/h (2 Bft) 98,57 %
09.06.2022 08:00 14,6 C 14,9 C 12,1 C 94 % 1012,5 hPa 0,0 l/m 0,23 h 0,00 h 194 W/m 12,1 km/h (2 Bft) 96,85 %
09.06.2022 09:00 15,5 C 16,6 C 13,4 C 91 % 1013,2 hPa 0,0 l/m 0,40 h 0,00 h 311 W/m 11,9 km/h (2 Bft) 97,24 %
09.06.2022 10:00 16,7 C 17,2 C 14,3 C 86 % 1013,9 hPa 0,0 l/m 0,20 h 0,00 h 310 W/m 11,7 km/h (2 Bft) 96,58 %
09.06.2022 11:00 16,6 C 15,9 C 12,7 C 87 % 1014,6 hPa 5,6 l/m 0,23 h 0,43 h 261 W/m 9,8 km/h (2 Bft) 98,57 %
09.06.2022 12:00 15,9 C 16,0 C 12,8 C 94 % 1015,1 hPa 0,0 l/m 0,27 h 0,15 h 440 W/m 6,5 km/h (2 Bft) 97,49 %
09.06.2022 13:00 18,2 C 18,9 C 15,2 C 82 % 1015,5 hPa 0,0 l/m 0,43 h 0,00 h 477 W/m 13,2 km/h (3 Bft) 97,68 %
09.06.2022 14:00 17,7 C 16,9 C 13,6 C 82 % 1016,2 hPa 1,0 l/m 0,10 h 0,37 h 195 W/m 16,3 km/h (3 Bft) 95,56 %
09.06.2022 15:00 16,2 C 16,5 C 11,3 C 87 % 1017,0 hPa 0,0 l/m 0,03 h 0,00 h 301 W/m 14,7 km/h (3 Bft) 99,50 %
09.06.2022 16:00 19,0 C 21,9 C 13,9 C 80 % 1017,6 hPa 0,2 l/m 0,90 h 0,00 h 630 W/m 10,3 km/h (2 Bft) 97,01 %
09.06.2022 17:00 20,0 C 20,9 C 15,8 C 73 % 1018,0 hPa 0,0 l/m 0,57 h 0,00 h 365 W/m 9,2 km/h (2 Bft) 96,94 %
09.06.2022 18:00 19,3 C 18,9 C 15,1 C 76 % 1018,2 hPa 0,0 l/m 0,00 h 0,00 h 154 W/m 6,6 km/h (2 Bft) 98,93 %
09.06.2022 19:00 19,3 C 19,2 C 14,9 C 77 % 1018,7 hPa 0,0 l/m 0,57 h 0,00 h 194 W/m 6,1 km/h (2 Bft) 98,22 %
09.06.2022 20:00 18,9 C 17,9 C 14,1 C 78 % 1019,1 hPa 0,0 l/m 0,00 h 0,00 h 57 W/m 0,3 km/h (0 Bft) 96,64 %
09.06.2022 21:00 17,7 C 16,2 C 12,4 C 82 % 1019,7 hPa 0,0 l/m 0,00 h 0,00 h 15 W/m 0,0 km/h (0 Bft) 99,15 %
09.06.2022 22:00 16,3 C 14,3 C 11,1 C 86 % 1020,4 hPa 0,0 l/m 0,00 h 0,00 h 0 W/m 0,0 km/h (0 Bft) 95,87 %
09.06.2022 23:00 14,8 C 13,0 C 10,1 C 91 % 1020,7 hPa 0,0 l/m 0,00 h 0,00 h 0 W/m 0,0 km/h (0 Bft) 98,59 %
10.06.2022 00:00 13,7 C 12,2 C 9,4 C 93 % 1021,0 hPa 0,0 l/m 0,00 h 0,00 h 0 W/m 0,0 km/h (0 Bft) 95,03 %
10.06.2022 01:00 13,0 C 11,7 C 9,1 C 94 % 1021,3 hPa 0,0 l/m 0,00 h 0,00 h 0 W/m 0,0 km/h (0 Bft) 97,51 %
10.06.2022 02:00 12,4 C 11,4 C 8,9 C 95 % 1021,3 hPa 0,0 l/m 0,00 h 0,00 h 0 W/m 0,0 km/h (0 Bft) 96,87 %
10.06.2022 03:00 12,0 C 11,2 C 8,6 C 96 % 1021,3 hPa 0,0 l/m 0,00 h 0,00 h 0 W/m 0,0 km/h (0 Bft) 97,01 %
10.06.2022 04:00 11,9 C 11,1 C 8,9 C 95 % 1021,5 hPa 0,0 l/m 0,00 h 0,00 h 0 W/m 0,0 km/h (0 Bft) 97,88 %
10.06.2022 05:00 11,8 C 11,3 C 8,9 C 95 % 1021,8 hPa 0,0 l/m 0,00 h 0,00 h 16 W/m 7,8 km/h (2 Bft) 94,87 %
10.06.2022 06:00 12,5 C 12,5 C 9,7 C 95 % 1022,2 hPa 0,0 l/m 0,00 h 0,00 h 41 W/m 3,2 km/h (1 Bft) 99,29 %
10.06.2022 07:00 13,3 C 13,2 C 10,3 C 94 % 1022,3 hPa 0,0 l/m 0,00 h 0,00 h 64 W/m 3,6 km/h (1 Bft) 97,65 %
10.06.2022 08:00 14,7 C 15,3 C 11,9 C 91 % 1022,7 hPa 0,0 l/m 0,10 h 0,00 h 155 W/m 5,6 km/h (1 Bft) 97,10 %
10.06.2022 09:00 17,2 C 18,1 C 14,2 C 83 % 1023,0 hPa 0,0 l/m 0,47 h 0,00 h 280 W/m 11,5 km/h (2 Bft) 97,87 %
10.06.2022 10:00 17,3 C 17,1 C 13,3 C 81 % 1023,1 hPa 0,0 l/m 0,00 h 0,00 h 172 W/m 12,1 km/h (2 Bft) 99,15 %
10.06.2022 11:00 18,6 C 19,1 C 15,1 C 78 % 1023,0 hPa 0,0 l/m 0,27 h 0,00 h 356 W/m 12,8 km/h (3 Bft) 95,02 %
10.06.2022 12:00 20,4 C 21,3 C 17,6 C 73 % 1022,7 hPa 0,0 l/m 0,85 h 0,00 h 529 W/m 16,4 km/h (3 Bft) 99,43 %
10.06.2022 13:00 21,9 C 22,6 C 19,3 C 69 % 1022,4 hPa 0,0 l/m 0,70 h 0,00 h 515 W/m 19,7 km/h (3 Bft) 96,67 %
10.06.2022 14:00 23,0 C 23,7 C 19,3 C 67 % 1022,0 hPa 0,0 l/m 0,60 h 0,00 h 467 W/m 20,2 km/h (4 Bft) 98,31 %
10.06.2022 15:00 23,7 C 24,8 C 19,5 C 65 % 1021,7 hPa 0,0 l/m 0,47 h 0,00 h 523 W/m 17,9 km/h (3 Bft) 95,97 %
10.06.2022 16:00 24,2 C 24,7 C 19,6 C 63 % 1021,5 hPa 0,0 l/m 0,27 h 0,00 h 368 W/m 13,0 km/h (3 Bft) 98,37 %
10.06.2022 17:00 23,2 C 22,8 C 18,4 C 66 % 1021,3 hPa 0,0 l/m 0,00 h 0,00 h 145 W/m 7,7 km/h (2 Bft) 98,51 %
10.06.2022 18:00 22,9 C 22,2 C 18,1 C 68 % 1021,1 hPa 0,0 l/m 0,00 h 0,00 h 105 W/m 4,3 km/h (1 Bft) 96,02 %
10.06.2022 19:00 22,9 C 22,2 C 17,8 C 67 % 1020,9 hPa 0,0 l/m 0,00 h 0,00 h 94 W/m 4,7 km/h (1 Bft) 98,43 %
10.06.2022 20:00 22,7 C 21,6 C 17,5 C 70 % 1020,8 hPa 0,0 l/m 0,00 h 0,00 h 49 W/m 4,1 km/h (1 Bft) 99,08 %
10.06.2022 21:00 22,0 C 20,7 C 16,8 C 73 % 1020,8 hPa 0,0 l/m 0,00 h 0,00 h 11 W/m 3,5 km/h (1 Bft) 94,95 %
10.06.2022 22:00 21,2 C 20,0 C 16,1 C 75 % 1021,0 hPa 0,0 l/m 0,00 h 0,00 h 0 W/m 3,8 km/h (1 Bft) 99,36 %
10.06.2022 23:00 20,7 C 19,5 C 15,8 C 76 % 1021,0 hPa 0,0 l/m 0,00 h 0,00 h 0 W/m 4,0 km/h (1 Bft) 96,87 %
11.06.2022 00:00 20,3 C 19,1 C 15,3 C 78 % 1021,1 hPa 0,0 l/m 0,00 h 0,00 h 0 W/m 4,8 km/h (1 Bft) 97,09 %
11.06.2022 01:00 19,8 C 18,9 C 14,9 C 81 % 1021,4 hPa 0,0 l/m 0,00 h 0,00 h 0 W/m 3,9 km/h (1 Bft) 98,58 %
11.06.2022 02:00 19,4 C 18,3 C 14,8 C 82 % 1021,6 hPa 0,0 l/m 0,00 h 0,00 h 0 W/m 3,3 km/h (1 Bft) 97,96 %
11.06.2022 03:00 18,4 C 16,7 C 13,2 C 84 % 1021,5 hPa 0,0 l/m 0,00 h 0,00 h 0 W/m 1,9 km/h (1 Bft) 96,79 %
11.06.2022 04:00 17,1 C 15,5 C 11,9 C 88 % 1021,6 hPa 0,0 l/m 0,00 h 0,00 h 0 W/m 0,7 km/h (0 Bft) 99,61 %
11.06.2022 05:00 16,3 C 14,9 C 11,2 C 90 % 1021,8 hPa 0,0 l/m 0,00 h 0,00 h 8 W/m 1,2 km/h (1 Bft) 95,85 %
11.06.2022 06:00 16,0 C 15,3 C 11,8 C 93 % 1022,1 hPa 0,0 l/m 0,00 h 0,00 h 32 W/m 1,2 km/h (1 Bft) 98,30 %
11.06.2022 07:00 17,0 C 17,0 C 13,5 C 94 % 1022,3 hPa 0,0 l/m 0,00 h 0,00 h 69 W/m 1,6 km/h (1 Bft) 98,51 %
11.06.2022 08:00 18,1 C 18,2 C 14,4 C 90 % 1022,6 hPa 0,0 l/m 0,00 h 0,00 h 149 W/m 4,7 km/h (1 Bft) 96,02 %
11.06.2022 09:00 19,3 C 20,2 C 16,3 C 83 % 1022,8 hPa 0,0 l/m 0,57 h 0,00 h 317 W/m 7,9 km/h (2 Bft) 98,29 %
11.06.2022 10:00 20,4 C 21,4 C 18,1 C 79 % 1023,0 hPa 0,0 l/m 0,50 h 0,00 h 454 W/m 9,6 km/h (2 Bft) 98,88 %
11.06.2022 11:00 21,4 C 22,9 C 19,2 C 76 % 1023,1 hPa 0,0 l/m 0,63 h 0,00 h 530 W/m 9,6 km/h (2 Bft) 96,79 %
11.06.2022 12:00 22,2 C 23,4 C 22,2 C 73 % 1023,1 hPa 0,0 l/m 0,67 h 0,00 h 608 W/m 9,9 km/h (2 Bft) 97,24 %
11.06.2022 13:00 23,7 C 25,3 C 26,9 C 68 % 1022,9 hPa 0,0 l/m 0,87 h 0,00 h 895 W/m 14,0 km/h (3 Bft) 97,08 %
11.06.2022 14:00 25,0 C 27,2 C 21,8 C 65 % 1022,6 hPa 0,0 l/m 1,00 h 0,00 h 989 W/m 13,1 km/h (3 Bft) 99,72 %
11.06.2022 15:00 25,3 C 27,2 C 21,0 C 60 % 1022,5 hPa 0,0 l/m 1,00 h 0,00 h 876 W/m 13,0 km/h (3 Bft) 96,30 %
11.06.2022 16:00 25,7 C 29,8 C 21,4 C 58 % 1022,1 hPa 0,0 l/m 1,00 h 0,00 h 771 W/m 14,9 km/h (3 Bft) 98,15 %
11.06.2022 17:00 26,0 C 30,7 C 21,8 C 57 % 1021,8 hPa 0,0 l/m 1,00 h 0,00 h 630 W/m 12,5 km/h (3 Bft) 98,43 %
11.06.2022 18:00 26,0 C 30,6 C 22,4 C 57 % 1021,7 hPa 0,0 l/m 1,00 h 0,00 h 495 W/m 13,3 km/h (3 Bft) 96,30 %
11.06.2022 19:00 25,7 C 25,9 C 21,0 C 58 % 1021,8 hPa 0,0 l/m 1,00 h 0,00 h 284 W/m 10,2 km/h (2 Bft) 97,69 %
11.06.2022 20:00 23,9 C 23,1 C 19,1 C 63 % 1021,9 hPa 0,0 l/m 0,20 h 0,00 h 59 W/m 6,5 km/h (2 Bft) 99,30 %
11.06.2022 21:00 22,8 C 21,4 C 17,6 C 68 % 1022,0 hPa 0,0 l/m 0,07 h 0,00 h 19 W/m 2,1 km/h (1 Bft) 95,43 %
11.06.2022 22:00 20,9 C 19,2 C 15,5 C 74 % 1022,4 hPa 0,0 l/m 0,00 h 0,00 h 0 W/m 0,5 km/h (0 Bft) 98,86 %
11.06.2022 23:00 19,5 C 17,9 C 14,4 C 77 % 1022,6 hPa 0,0 l/m 0,00 h 0,00 h 0 W/m 1,9 km/h (1 Bft) 98,72 %
12.06.2022 00:00 18,1 C 16,9 C 13,4 C 81 % 1022,9 hPa 0,0 l/m 0,00 h 0,00 h 0 W/m 1,5 km/h (1 Bft) 94,95 %
12.06.2022 01:00 17,3 C 16,0 C 12,8 C 84 % 1023,0 hPa 0,0 l/m 0,00 h 0,00 h 0 W/m 2,2 km/h (1 Bft) 99,50 %
12.06.2022 02:00 16,3 C 14,9 C 11,8 C 85 % 1023,0 hPa 0,0 l/m 0,00 h 0,00 h 0 W/m 0,3 km/h (0 Bft) 97,29 %
12.06.2022 03:00 15,2 C 13,7 C 10,8 C 88 % 1022,9 hPa 0,0 l/m 0,00 h 0,00 h 0 W/m 0,0 km/h (0 Bft) 98,16 %
12.06.2022 04:00 14,2 C 12,9 C 10,1 C 91 % 1022,9 hPa 0,0 l/m 0,00 h 0,00 h 0 W/m 0,0 km/h (0 Bft) 96,12 %
12.06.2022 05:00 13,4 C 12,2 C 9,4 C 92 % 1022,9 hPa 0,0 l/m 0,00 h 0,00 h 10 W/m 0,1 km/h (0 Bft) 98,36 %
12.06.2022 06:00 13,2 C 12,6 C 9,6 C 93 % 1023,1 hPa 0,0 l/m 0,00 h 0,00 h 22 W/m 0,1 km/h (0 Bft) 98,86 %
12.06.2022 07:00 14,4 C 14,6 C 11,3 C 90 % 1023,0 hPa 0,0 l/m 0,33 h 0,00 h 120 W/m 3,3 km/h (1 Bft) 96,13 %
12.06.2022 08:00 16,8 C 19,1 C 14,4 C 80 % 1023,3 hPa 0,0 l/m 1,00 h 0,00 h 421 W/m 8,5 km/h (2 Bft) 99,36 %
12.06.2022 09:00 19,0 C 24,4 C 18,5 C 69 % 1023,4 hPa 0,0 l/m 1,00 h 0,00 h 608 W/m 9,1 km/h (2 Bft) 97,37 %
12.06.2022 10:00 20,5 C 22,9 C 21,8 C 64 % 1023,4 hPa 0,0 l/m 1,00 h 0,00 h 751 W/m 12,0 km/h (2 Bft) 97,67 %
12.06.2022 11:00 21,8 C 24,5 C 21,0 C 63 % 1023,0 hPa 0,0 l/m 1,00 h 0,00 h 865 W/m 11,1 km/h (2 Bft) 96,26 %
12.06.2022 12:00 23,3 C 25,4 C 27,4 C 62 % 1022,7 hPa 0,0 l/m 1,00 h 0,00 h 1009 W/m 12,5 km/h (3 Bft) 97,96 %
12.06.2022 13:00 24,6 C 26,2 C 29,6 C 56 % 1022,4 hPa 0,0 l/m 1,00 h 0,00 h 988 W/m 11,7 km/h (2 Bft) 98,22 %
12.06.2022 14:00 24,7 C 26,6 C 21,6 C 56 % 1022,0 hPa 0,0 l/m 0,77 h 0,00 h 824 W/m 14,0 km/h (3 Bft) 97,79 %
12.06.2022 15:00 24,0 C 25,2 C 20,2 C 56 % 1021,6 hPa 0,0 l/m 0,53 h 0,00 h 568 W/m 12,8 km/h (3 Bft) 96,37 %
12.06.2022 16:00 24,4 C 27,3 C 20,3 C 53 % 1021,0 hPa 0,0 l/m 0,77 h 0,00 h 607 W/m 13,2 km/h (3 Bft) 99,65 %
12.06.2022 17:00 24,5 C 28,1 C 20,6 C 51 % 1020,6 hPa 0,0 l/m 0,93 h 0,00 h 650 W/m 14,0 km/h (3 Bft) 96,02 %
12.06.2022 18:00 23,7 C 24,9 C 19,6 C 55 % 1020,4 hPa 0,0 l/m 0,47 h 0,00 h 249 W/m 13,6 km/h (3 Bft) 98,24 %
12.06.2022 19:00 22,3 C 22,3 C 18,1 C 59 % 1020,4 hPa 0,0 l/m 0,97 h 0,00 h 238 W/m 17,7 km/h (3 Bft) 98,51 %
12.06.2022 20:00 20,2 C 19,6 C 16,1 C 61 % 1020,7 hPa 0,0 l/m 0,23 h 0,00 h 80 W/m 16,3 km/h (3 Bft) 97,16 %
12.06.2022 21:00 19,2 C 18,3 C 14,9 C 62 % 1020,6 hPa 0,0 l/m 0,60 h 0,00 h 26 W/m 9,1 km/h (2 Bft) 97,01 %
12.06.2022 22:00 17,9 C 16,6 C 13,4 C 66 % 1021,0 hPa 0,0 l/m 0,00 h 0,00 h 0 W/m 3,3 km/h (1 Bft) 99,29 %
12.06.2022 23:00 16,6 C 15,0 C 12,0 C 72 % 1021,0 hPa 0,0 l/m 0,00 h 0,00 h 0 W/m 0,9 km/h (0 Bft) 95,01 %
Min-Datum _ 07.06.22 10.06.22 07.06.22 12.06.22 08.06.22 - - - - 06.06.22 10.06.22
_ Min-Zeit 04:38 03:12 04:14 17:46 17:38 - - - - 03:44 00:02
Minimum _ 11,8 C 10,6 C 8,3 C 49 % 1006,4 hPa - - - - 0,0 km/h (0 Bft) 9,09 %
Max-Datum _ 11.06.22 11.06.22 12.06.22 06.06.22 12.06.22 08.06.22 06.06.22 08.06.22 09.06.22 06.06.22 06.06.22
_ Max-Zeit 18:38 17:02 13:06 00:24 08:56 12:07 15:52 12:07 13:58 10:14 00:07
Maximum _ 26,4 C 31,7 C 31,1 C 98 % 1023,5 hPa 6,4 l/m 0,07 h 0,05 h 1199 W/m 54,7 km/h
SO (7 Bft)
100,00 %
Durchschnitt _ 17,8 C 17,8 C 14,3 C 82 % 1016,7 hPa #27,0 l/m #42:57 h #11:39 h 303 W/m 9,0 km/h (2 Bft) 97,59 %
© 2022 W. Hausmann